createdAt,value
2018-09-27T00:01:19.681Z,14.40
2018-09-27T00:03:48.501Z,14.30
2018-09-27T00:06:17.325Z,14.20
2018-09-27T00:08:46.153Z,14.20
2018-09-27T00:11:14.980Z,14.10
2018-09-27T00:13:43.815Z,14.10
2018-09-27T00:16:12.783Z,14.10
2018-09-27T00:18:41.621Z,14.20
2018-09-27T00:21:10.432Z,14.20
2018-09-27T00:23:39.373Z,14.00
2018-09-27T00:26:08.760Z,13.90
2018-09-27T00:28:37.805Z,13.90
2018-09-27T00:31:06.949Z,13.80
2018-09-27T00:33:35.837Z,13.70
2018-09-27T00:36:04.682Z,13.60
2018-09-27T00:38:33.513Z,13.60
2018-09-27T00:41:02.353Z,13.60
2018-09-27T00:43:31.181Z,13.80
2018-09-27T00:46:00.009Z,13.80
2018-09-27T00:48:28.847Z,13.70
2018-09-27T00:51:06.033Z,13.70
2018-09-27T00:53:34.871Z,13.80
2018-09-27T00:56:03.675Z,13.70
2018-09-27T00:58:32.552Z,13.60
2018-09-27T01:01:01.438Z,13.60
2018-09-27T01:03:30.296Z,13.50
2018-09-27T01:05:59.139Z,13.50
2018-09-27T01:08:28.007Z,13.40
2018-09-27T01:10:56.910Z,13.40
2018-09-27T01:13:25.744Z,13.40
2018-09-27T01:15:54.593Z,13.40
2018-09-27T01:18:23.595Z,13.40
2018-09-27T01:20:52.456Z,13.40
2018-09-27T01:23:21.425Z,13.40
2018-09-27T01:25:50.333Z,13.40
2018-09-27T01:28:19.240Z,13.40
2018-09-27T01:30:48.087Z,13.40
2018-09-27T01:33:16.929Z,13.40
2018-09-27T01:35:45.931Z,13.30
2018-09-27T01:38:14.864Z,12.80
2018-09-27T01:40:43.765Z,12.50
2018-09-27T01:43:12.674Z,12.40
2018-09-27T01:45:41.579Z,12.30
2018-09-27T01:48:10.403Z,12.40
2018-09-27T01:50:39.469Z,12.70
2018-09-27T01:53:08.361Z,12.90
2018-09-27T01:55:37.194Z,13.00
2018-09-27T01:58:06.268Z,13.00
2018-09-27T02:00:35.124Z,13.00
2018-09-27T02:03:04.107Z,13.00
2018-09-27T02:05:32.932Z,12.90
2018-09-27T02:08:01.774Z,12.60
2018-09-27T02:10:30.605Z,12.50
2018-09-27T02:12:59.482Z,12.40
2018-09-27T02:15:28.324Z,12.30
2018-09-27T02:17:57.203Z,12.20
2018-09-27T02:20:26.236Z,12.20
2018-09-27T02:22:55.101Z,12.20
2018-09-27T02:25:24.037Z,12.10
2018-09-27T02:27:52.930Z,12.00
2018-09-27T02:30:21.793Z,11.80
2018-09-27T02:32:50.851Z,12.00
2018-09-27T02:35:19.713Z,12.00
2018-09-27T02:37:48.599Z,12.00
2018-09-27T02:40:17.539Z,12.00
2018-09-27T02:42:46.521Z,12.00
2018-09-27T02:45:15.369Z,11.80
2018-09-27T02:47:44.526Z,11.60
2018-09-27T02:50:13.485Z,11.50
2018-09-27T02:52:42.323Z,11.50
2018-09-27T02:55:11.528Z,11.60
2018-09-27T02:57:40.488Z,12.00
2018-09-27T03:00:09.467Z,12.20
2018-09-27T03:02:38.321Z,12.40
2018-09-27T03:05:07.439Z,12.10
2018-09-27T03:07:36.371Z,11.70
2018-09-27T03:10:05.595Z,11.50
2018-09-27T03:12:34.456Z,11.50
2018-09-27T03:15:03.662Z,11.40
2018-09-27T03:17:32.544Z,11.20
2018-09-27T03:20:01.417Z,11.20
2018-09-27T03:22:30.315Z,11.30
2018-09-27T03:24:59.260Z,11.30
2018-09-27T03:27:28.085Z,11.50
2018-09-27T03:29:56.981Z,12.00
2018-09-27T03:32:25.825Z,12.30
2018-09-27T03:34:54.740Z,12.30
2018-09-27T03:37:23.633Z,12.50
2018-09-27T03:39:52.565Z,12.50
2018-09-27T03:42:23.977Z,12.50
2018-09-27T03:44:53.011Z,12.60
2018-09-27T03:47:21.844Z,12.60
2018-09-27T03:49:50.892Z,12.70
2018-09-27T03:52:19.816Z,12.60
2018-09-27T03:54:48.708Z,12.70
2018-09-27T03:57:17.681Z,12.70
2018-09-27T03:59:46.550Z,12.70
2018-09-27T04:02:15.483Z,12.70
2018-09-27T04:04:44.435Z,12.70
2018-09-27T04:07:13.277Z,12.60
2018-09-27T04:09:42.116Z,12.50
2018-09-27T04:12:10.990Z,12.50
2018-09-27T04:14:39.979Z,12.50
2018-09-27T04:17:08.854Z,12.50
2018-09-27T04:19:37.700Z,12.50
2018-09-27T04:22:06.592Z,12.60
2018-09-27T04:24:35.465Z,12.60
2018-09-27T04:27:04.391Z,12.60
2018-09-27T04:29:33.325Z,12.60
2018-09-27T04:32:02.210Z,12.60
2018-09-27T04:34:31.089Z,12.50
2018-09-27T04:37:00.013Z,12.40
2018-09-27T04:39:28.893Z,12.40
2018-09-27T04:41:57.792Z,12.40
2018-09-27T04:44:26.674Z,12.30
2018-09-27T04:46:55.550Z,12.30
2018-09-27T04:49:24.429Z,12.40
2018-09-27T04:51:53.547Z,12.40
2018-09-27T04:54:22.342Z,12.40
2018-09-27T04:56:51.226Z,12.40
2018-09-27T04:59:20.121Z,12.40
2018-09-27T05:01:49.010Z,12.30
2018-09-27T05:04:17.898Z,12.40
2018-09-27T05:06:46.780Z,12.40
2018-09-27T05:09:15.662Z,12.50
2018-09-27T05:11:44.492Z,12.40
2018-09-27T05:14:13.338Z,12.40
2018-09-27T05:16:42.234Z,12.40
2018-09-27T05:19:11.155Z,12.30
2018-09-27T05:21:40.449Z,12.40
2018-09-27T05:24:09.428Z,12.40
2018-09-27T05:26:38.474Z,12.50
2018-09-27T05:29:07.721Z,12.40
2018-09-27T05:31:36.762Z,12.40
2018-09-27T05:34:06.831Z,12.30
2018-09-27T05:36:35.806Z,12.50
2018-09-27T05:39:06.746Z,12.40
2018-09-27T05:41:35.717Z,12.50
2018-09-27T05:44:04.693Z,12.40
2018-09-27T05:46:33.564Z,12.40
2018-09-27T05:49:02.491Z,12.40
2018-09-27T05:51:32.280Z,12.50
2018-09-27T05:54:01.450Z,12.50
2018-09-27T05:56:30.500Z,12.40
2018-09-27T05:58:59.385Z,12.40
2018-09-27T06:01:28.216Z,12.40
2018-09-27T06:03:57.033Z,12.20
2018-09-27T06:06:25.905Z,12.20
2018-09-27T06:08:54.795Z,12.30
2018-09-27T06:11:23.790Z,12.20
2018-09-27T06:13:52.644Z,12.40
2018-09-27T06:16:21.639Z,12.50
2018-09-27T06:18:50.557Z,12.40
2018-09-27T06:21:19.409Z,12.30
2018-09-27T06:23:48.245Z,12.20
2018-09-27T06:26:17.209Z,12.20
2018-09-27T06:28:46.061Z,12.20
2018-09-27T06:31:14.994Z,12.20
2018-09-27T06:33:43.967Z,12.40
2018-09-27T06:36:13.425Z,12.60
2018-09-27T06:38:42.400Z,12.70
2018-09-27T06:41:11.967Z,12.90
2018-09-27T06:43:40.896Z,12.90
2018-09-27T06:46:10.476Z,13.00
2018-09-27T06:48:39.416Z,13.10
2018-09-27T06:51:11.659Z,13.20
2018-09-27T06:53:42.101Z,13.40
2018-09-27T06:56:11.057Z,13.50
2018-09-27T06:58:41.924Z,13.70
2018-09-27T07:01:10.791Z,13.80
2018-09-27T07:04:10.739Z,13.90
2018-09-27T07:06:39.640Z,14.00
2018-09-27T07:09:10.619Z,14.10
2018-09-27T07:11:40.169Z,14.00
2018-09-27T07:14:09.784Z,14.20
2018-09-27T07:16:39.839Z,14.30
2018-09-27T07:19:09.282Z,14.30
2018-09-27T07:21:38.285Z,14.70
2018-09-27T07:24:08.247Z,14.60
2018-09-27T07:26:37.247Z,14.70
2018-09-27T07:29:06.301Z,14.90
2018-09-27T07:31:36.145Z,14.90
2018-09-27T07:34:04.998Z,15.00
2018-09-27T07:36:34.978Z,15.20
2018-09-27T07:39:05.016Z,15.30
2018-09-27T07:41:33.920Z,15.30
2018-09-27T07:44:03.430Z,15.40
2018-09-27T07:47:35.614Z,15.40
2018-09-27T07:50:04.553Z,15.50
2018-09-27T07:52:33.492Z,15.80
2018-09-27T07:55:02.516Z,15.90
2018-09-27T07:57:31.389Z,15.80
2018-09-27T08:00:00.282Z,15.90
2018-09-27T08:02:29.172Z,16.00
2018-09-27T08:04:58.250Z,16.20
2018-09-27T08:07:27.161Z,16.20
2018-09-27T08:09:56.008Z,16.30
2018-09-27T08:12:25.574Z,16.40
2018-09-27T08:14:54.681Z,16.40
2018-09-27T08:17:23.622Z,16.40
2018-09-27T08:19:52.395Z,16.40
2018-09-27T08:22:21.266Z,16.50
2018-09-27T08:24:50.129Z,16.70
2018-09-27T08:27:18.968Z,16.70
2018-09-27T08:29:47.992Z,16.70
2018-09-27T08:32:16.977Z,16.80
2018-09-27T08:34:45.860Z,16.80
2018-09-27T08:39:44.008Z,16.90
2018-09-27T08:42:12.844Z,17.00
2018-09-27T08:44:42.793Z,17.10
2018-09-27T08:47:11.547Z,17.00
2018-09-27T08:49:41.461Z,16.60
2018-09-27T08:52:10.348Z,16.20
2018-09-27T08:54:39.777Z,15.90
2018-09-27T08:57:08.641Z,15.50
2018-09-27T08:59:37.481Z,15.30
2018-09-27T09:02:07.323Z,15.40
2018-09-27T09:04:36.138Z,15.70
2018-09-27T09:07:05.213Z,16.40
2018-09-27T09:24:26.464Z,16.90
2018-09-27T09:26:55.269Z,16.90
2018-09-27T09:29:24.200Z,16.60
2018-09-27T09:31:53.009Z,17.20
2018-09-27T09:59:07.095Z,17.70
2018-09-27T10:01:35.937Z,18.70
2018-09-27T10:13:58.721Z,18.00
2018-09-27T10:16:27.536Z,19.50
2018-09-27T10:23:53.473Z,19.50
2018-09-27T10:26:22.342Z,19.30
2018-09-27T10:28:51.328Z,19.00
2018-09-27T10:31:20.157Z,18.80
2018-09-27T10:33:49.041Z,18.10
2018-09-27T10:38:46.412Z,18.30
2018-09-27T10:41:15.270Z,18.80
2018-09-27T10:43:44.116Z,18.70
2018-09-27T10:46:12.949Z,18.80
2018-09-27T10:48:41.884Z,18.90
2018-09-27T10:51:10.760Z,18.90
2018-09-27T10:53:39.613Z,19.00
2018-09-27T10:56:08.683Z,19.10
2018-09-27T10:58:37.549Z,18.90
2018-09-27T11:01:06.391Z,18.90
2018-09-27T11:03:35.264Z,18.80
2018-09-27T11:06:04.162Z,18.60
2018-09-27T11:08:34.098Z,18.50
2018-09-27T11:11:02.976Z,18.60
2018-09-27T11:13:31.818Z,18.80
2018-09-27T11:16:00.657Z,18.70
2018-09-27T11:18:29.616Z,18.50
2018-09-27T11:20:58.525Z,18.80
2018-09-27T11:23:27.521Z,19.00
2018-09-27T11:25:56.409Z,19.10
2018-09-27T11:28:27.589Z,19.20
2018-09-27T11:31:01.818Z,19.20
2018-09-27T11:33:30.674Z,19.30
2018-09-27T11:35:59.524Z,19.30
2018-09-27T11:38:28.392Z,19.30
2018-09-27T11:40:57.184Z,19.30
2018-09-27T11:43:26.042Z,19.20
2018-09-27T11:45:54.869Z,19.20
2018-09-27T11:48:23.912Z,19.30
2018-09-27T11:50:52.737Z,19.30
2018-09-27T11:53:21.588Z,19.40
2018-09-27T11:55:50.485Z,19.40
2018-09-27T11:58:19.274Z,19.40
2018-09-27T12:00:48.120Z,19.40
2018-09-27T12:03:16.942Z,19.40
2018-09-27T12:05:45.849Z,19.40
2018-09-27T12:08:14.721Z,19.40
2018-09-27T12:10:43.798Z,19.40
2018-09-27T12:13:12.679Z,19.40
2018-09-27T12:15:41.501Z,19.40
2018-09-27T12:18:10.339Z,19.50
2018-09-27T12:20:39.181Z,19.50
2018-09-27T12:23:08.099Z,19.50
2018-09-27T12:25:37.333Z,19.60
2018-09-27T12:28:06.149Z,19.50
2018-09-27T12:30:35.076Z,19.60
2018-09-27T12:33:03.999Z,19.60
2018-09-27T12:35:32.834Z,19.70
2018-09-27T12:38:01.653Z,19.70
2018-09-27T12:40:30.557Z,19.60
2018-09-27T12:42:59.381Z,19.60
2018-09-27T12:45:28.315Z,19.50
2018-09-27T12:47:57.118Z,19.80
2018-09-27T12:50:25.962Z,19.70
2018-09-27T12:52:54.855Z,19.70
2018-09-27T12:55:23.644Z,19.70
2018-09-27T12:57:54.722Z,19.90
2018-09-27T13:00:23.709Z,19.90
2018-09-27T13:02:53.555Z,19.80
2018-09-27T13:05:22.325Z,19.70
2018-09-27T13:07:51.572Z,19.80
2018-09-27T13:10:22.271Z,20.10
2018-09-27T13:12:51.168Z,20.10
2018-09-27T13:15:23.086Z,20.00
2018-09-27T13:17:53.441Z,20.10
2018-09-27T13:20:22.331Z,20.20
2018-09-27T13:22:52.211Z,20.20
2018-09-27T13:25:21.070Z,20.10
2018-09-27T13:27:49.908Z,20.20
2018-09-27T13:30:18.859Z,20.20
2018-09-27T13:32:47.653Z,20.40
2018-09-27T13:35:16.535Z,20.40
2018-09-27T13:37:46.358Z,20.40
2018-09-27T13:40:15.201Z,20.40
2018-09-27T13:42:45.066Z,20.50
2018-09-27T13:45:13.928Z,20.50
2018-09-27T13:47:42.803Z,20.60
2018-09-27T13:50:12.244Z,20.60
2018-09-27T13:52:41.086Z,20.70
2018-09-27T13:55:09.995Z,20.90
2018-09-27T13:57:38.878Z,21.30
2018-09-27T14:00:10.342Z,21.40
2018-09-27T14:02:39.235Z,21.60
2018-09-27T14:05:08.224Z,21.40
2018-09-27T14:07:37.109Z,21.40
2018-09-27T14:10:06.018Z,21.50
2018-09-27T14:12:34.874Z,21.60
2018-09-27T14:15:04.094Z,21.70
2018-09-27T14:32:23.947Z,21.70
2018-09-27T14:34:52.705Z,22.80
2018-09-27T14:37:21.597Z,22.90
2018-09-27T14:39:50.558Z,23.10
2018-09-27T14:44:47.896Z,23.20
2018-09-27T20:27:00.442Z,21.70
2018-09-27T20:29:29.408Z,18.50
2018-09-27T20:31:58.272Z,18.50
2018-09-27T20:34:27.222Z,18.40
2018-09-27T20:36:56.161Z,18.40
2018-09-27T20:39:25.618Z,18.40
2018-09-27T20:41:54.692Z,18.30
2018-09-27T20:44:23.765Z,18.40
2018-09-27T20:46:53.664Z,18.30
2018-09-27T20:49:23.017Z,18.30
2018-09-27T20:51:52.509Z,18.30
2018-09-27T20:54:21.897Z,18.30
2018-09-27T20:56:50.888Z,18.30
2018-09-27T20:59:19.736Z,18.30
2018-09-27T21:01:48.795Z,18.20
2018-09-27T21:04:18.214Z,18.20
2018-09-27T21:06:47.559Z,18.20
2018-09-27T21:09:16.509Z,18.00
2018-09-27T21:11:45.770Z,18.10
2018-09-27T21:14:14.820Z,18.00
2018-09-27T21:16:43.780Z,18.00
2018-09-27T21:19:12.661Z,17.90
2018-09-27T21:21:41.508Z,17.90
2018-09-27T21:24:10.360Z,18.00
2018-09-27T21:26:39.277Z,17.90
2018-09-27T21:29:08.120Z,17.90
2018-09-27T21:31:38.524Z,18.00
2018-09-27T21:34:07.394Z,17.90
2018-09-27T21:36:36.246Z,17.90
2018-09-27T21:39:06.260Z,17.90
2018-09-27T21:41:35.209Z,17.80
2018-09-27T21:44:04.111Z,17.70
2018-09-27T21:46:35.276Z,17.60
2018-09-27T21:49:04.138Z,17.60
2018-09-27T21:51:32.989Z,17.60
2018-09-27T21:54:02.428Z,17.50
2018-09-27T21:56:31.317Z,17.60
2018-09-27T21:59:00.188Z,17.60
2018-09-27T22:01:29.056Z,17.60
2018-09-27T22:03:57.915Z,17.70
2018-09-27T22:06:27.756Z,17.60
2018-09-27T22:08:56.802Z,17.60
2018-09-27T22:11:25.716Z,17.50
2018-09-27T22:13:56.211Z,17.40
2018-09-27T22:16:25.135Z,17.40
2018-09-27T22:18:53.992Z,17.40
2018-09-27T22:21:22.912Z,17.40
2018-09-27T22:23:51.770Z,17.40
2018-09-27T22:26:20.725Z,17.30
2018-09-27T22:28:49.678Z,17.30
2018-09-27T22:31:18.573Z,17.30
2018-09-27T22:33:48.048Z,17.20
2018-09-27T22:36:17.029Z,17.20
2018-09-27T22:38:45.885Z,17.20
2018-09-27T22:41:15.735Z,17.10
2018-09-27T22:43:44.651Z,17.10
2018-09-27T22:46:13.489Z,17.20
2018-09-27T22:48:42.353Z,17.10
2018-09-27T22:51:11.329Z,17.00
2018-09-27T22:53:40.192Z,17.10
2018-09-27T22:56:09.089Z,17.20
2018-09-27T22:58:37.935Z,17.10
2018-09-27T23:01:07.185Z,17.00
2018-09-27T23:03:36.077Z,17.00
2018-09-27T23:06:04.917Z,16.90
2018-09-27T23:08:33.803Z,16.80
2018-09-27T23:11:02.894Z,17.00
2018-09-27T23:13:31.775Z,17.00
2018-09-27T23:16:00.620Z,16.80
2018-09-27T23:18:29.507Z,16.70
2018-09-27T23:20:58.389Z,16.70
2018-09-27T23:23:27.497Z,16.60
2018-09-27T23:25:56.461Z,16.70
2018-09-27T23:28:25.344Z,16.70
2018-09-27T23:30:54.323Z,16.90
2018-09-27T23:33:23.224Z,16.90
2018-09-27T23:35:52.276Z,16.70
2018-09-27T23:38:21.264Z,16.70
2018-09-27T23:40:50.082Z,16.60
2018-09-27T23:43:18.921Z,16.60
2018-09-27T23:45:47.799Z,16.50
2018-09-27T23:48:16.628Z,16.50
2018-09-27T23:50:45.508Z,16.40
2018-09-27T23:53:14.405Z,16.40
2018-09-27T23:55:43.240Z,16.50
2018-09-27T23:58:12.076Z,16.60
